Time;durP1;ratioP1;P1;durP2;ratioP2;P2;SDS_P1;SDS_P2;PMS_P1;PMS_P2;Temp;Humidity;BMP_temperature;BMP_pressure;BME280_temperature;BME280_humidity;BME280_pressure;Samples;Min_cycle;Max_cycle;Signal;HPM_P1;HPM_P2
2023/12/02 00:01:33;;;;;;;32.47;5.75;;;;;;;;;;5093370;28;20047;-75
2023/12/02 00:04:38;;;;;;;30.65;4.68;;;;;;;;;;5093274;28;20388;-75
2023/12/02 00:07:42;;;;;;;32.17;4.78;;;;;;;;;;5092827;28;20066;-74
2023/12/02 00:10:47;;;;;;;42.80;5.10;;;;;;;;;;5092943;28;20526;-74
2023/12/02 00:13:51;;;;;;;40.53;6.07;;;;;;;;;;5092424;28;20043;-74
2023/12/02 00:16:55;;;;;;;33.75;4.90;;;;;;;;;;5092729;28;20500;-74
2023/12/02 00:19:59;;;;;;;33.88;5.20;;;;;;;;;;5092893;28;20384;-74
2023/12/02 00:23:04;;;;;;;38.72;5.50;;;;;;;;;;5092639;28;20053;-75
2023/12/02 00:26:11;;;;;;;31.38;4.80;;;;;;;;;;5092558;28;20388;-74
2023/12/02 00:29:16;;;;;;;44.38;5.70;;;;;;;;;;5092720;28;20046;-74
2023/12/02 00:32:21;;;;;;;27.88;4.65;;;;;;;;;;5092582;28;20051;-75
2023/12/02 00:35:25;;;;;;;47.15;7.40;;;;;;;;;;5092446;28;20158;-74
2023/12/02 00:38:29;;;;;;;37.70;5.07;;;;;;;;;;5092276;28;20039;-74
2023/12/02 00:41:33;;;;;;;43.30;5.47;;;;;;;;;;5092638;28;20206;-73
2023/12/02 00:44:38;;;;;;;44.08;4.15;;;;;;;;;;5092273;28;20059;-75
2023/12/02 00:47:42;;;;;;;43.05;5.13;;;;;;;;;;5092057;28;20050;-74
2023/12/02 00:50:46;;;;;;;37.28;5.53;;;;;;;;;;5092363;28;20506;-73
2023/12/02 00:53:53;;;;;;;53.13;5.55;;;;;;;;;;5092271;28;20471;-73
2023/12/02 00:56:58;;;;;;;43.17;5.72;;;;;;;;;;5092259;28;20536;-73
2023/12/02 01:00:03;;;;;;;41.17;5.97;;;;;;;;;;5092175;28;20051;-73
2023/12/02 01:03:08;;;;;;;47.10;5.43;;;;;;;;;;5092106;28;20035;-73
2023/12/02 01:06:12;;;;;;;46.10;6.03;;;;;;;;;;5091836;28;20530;-73
2023/12/02 01:09:16;;;;;;;45.42;6.22;;;;;;;;;;5092198;28;20043;-73
2023/12/02 01:12:23;;;;;;;38.20;6.20;;;;;;;;;;5091928;28;20047;-74
2023/12/02 01:15:28;;;;;;;58.20;6.57;;;;;;;;;;5079133;28;20035;-72
2023/12/02 01:18:33;;;;;;;50.92;6.18;;;;;;;;;;5091478;28;20067;-72
2023/12/02 01:21:37;;;;;;;50.30;6.68;;;;;;;;;;5091954;28;20039;-73
2023/12/02 01:24:42;;;;;;;40.75;5.78;;;;;;;;;;5091503;28;20051;-73
2023/12/02 01:27:49;;;;;;;51.80;6.55;;;;;;;;;;5091297;28;20055;-74
2023/12/02 01:30:53;;;;;;;52.60;5.82;;;;;;;;;;5091746;28;20043;-72
2023/12/02 01:33:57;;;;;;;49.22;6.47;;;;;;;;;;5091753;28;20051;-74
2023/12/02 01:37:01;;;;;;;56.92;6.18;;;;;;;;;;5079032;28;20035;-73
2023/12/02 01:40:07;;;;;;;67.28;6.18;;;;;;;;;;5091736;28;20047;-74
2023/12/02 01:43:25;;;;;;;56.05;6.60;;;18.90;94.40;;;;;;5091704;28;20047;-72
2023/12/02 01:46:29;;;;;;;53.50;6.75;;;;;;;;;;5091455;28;20051;-73
2023/12/02 01:49:34;;;;;;;59.97;7.25;;;;;;;;;;5091294;28;20383;-74
2023/12/02 01:52:38;;;;;;;54.97;6.88;;;;;;;;;;5091217;28;20039;-73
2023/12/02 01:55:44;;;;;;;56.85;6.72;;;19.00;94.30;;;;;;5090963;28;20043;-73
2023/12/02 01:58:48;;;;;;;68.03;7.60;;;;;;;;;;5091111;28;20047;-74
2023/12/02 02:01:52;;;;;;;50.88;5.75;;;;;;;;;;5091123;28;20039;-73
2023/12/02 02:04:57;;;;;;;43.88;5.47;;;;;;;;;;5091143;28;20055;-72
2023/12/02 02:08:01;;;;;;;53.47;6.10;;;;;;;;;;5078572;28;20498;-73
2023/12/02 02:11:05;;;;;;;42.40;6.72;;;;;;;;;;5079071;28;20106;-75
2023/12/02 02:14:10;;;;;;;62.10;6.53;;;;;;;;;;5090997;28;20190;-75
2023/12/02 02:17:14;;;;;;;52.60;6.90;;;;;;;;;;5091156;28;20051;-72
2023/12/02 02:20:18;;;;;;;50.50;6.38;;;;;;;;;;5091221;28;20063;-72
2023/12/02 02:23:23;;;;;;;66.30;6.70;;;;;;;;;;5078899;28;20043;-75
2023/12/02 02:26:28;;;;;;;51.97;5.38;;;;;;;;;;5090995;28;20093;-75
2023/12/02 02:29:32;;;;;;;52.13;7.03;;;;;;;;;;5091103;28;20043;-75
2023/12/02 02:32:36;;;;;;;47.63;7.30;;;;;;;;;;5091244;28;20043;-76
2023/12/02 02:35:40;;;;;;;48.47;6.97;;;;;;;;;;5091028;28;20048;-76
2023/12/02 02:38:44;;;;;;;43.75;6.10;;;;;;;;;;5094514;28;20039;-76
2023/12/02 02:41:49;;;;;;;52.65;6.47;;;;;;;;;;5095179;28;20423;-74
2023/12/02 02:44:53;;;;;;;56.92;7.30;;;;;;;;;;5095034;28;20051;-75
2023/12/02 02:47:57;;;;;;;61.75;6.95;;;;;;;;;;5094603;28;20412;-73
2023/12/02 02:51:02;;;;;;;53.92;6.72;;;;;;;;;;5094628;28;20043;-75
2023/12/02 02:54:06;;;;;;;61.83;7.28;;;;;;;;;;5094830;28;20228;-76
2023/12/02 02:57:11;;;;;;;70.75;8.25;;;;;;;;;;5094655;28;20039;-74
2023/12/02 03:00:16;;;;;;;76.63;8.15;;;;;;;;;;5094650;28;20039;-74
2023/12/02 03:03:20;;;;;;;67.30;7.63;;;;;;;;;;5081960;28;20043;-74
2023/12/02 03:06:25;;;;;;;59.88;7.63;;;;;;;;;;5094178;28;20526;-72
2023/12/02 03:09:30;;;;;;;50.08;6.60;;;;;;;;;;5094357;28;20035;-74
2023/12/02 03:12:37;;;;;;;59.00;7.53;;;18.80;96.40;;;;;;5094363;28;20071;-74
2023/12/02 03:15:41;;;;;;;63.90;8.00;;;;;;;;;;5094496;28;20530;-73
2023/12/02 03:18:45;;;;;;;57.50;7.68;;;;;;;;;;5094003;28;20047;-73
2023/12/02 03:21:51;;;;;;;53.88;6.20;;;;;;;;;;5094243;28;20101;-73
2023/12/02 03:24:55;;;;;;;62.88;7.22;;;;;;;;;;5094275;28;20067;-74
2023/12/02 03:28:00;;;;;;;60.35;6.47;;;;;;;;;;5094112;28;20051;-74
2023/12/02 03:31:04;;;;;;;65.18;8.57;;;;;;;;;;5093920;28;20399;-75
2023/12/02 03:34:08;;;;;;;81.88;9.38;;;;;;;;;;5093901;28;20047;-74
2023/12/02 03:37:13;;;;;;;58.03;7.43;;;;;;;;;;5094491;28;20043;-75
2023/12/02 03:40:17;;;;;;;53.83;6.57;;;;;;;;;;5093791;28;20403;-74
2023/12/02 03:43:21;;;;;;;52.45;6.85;;;;;;;;;;5093942;28;20044;-75
2023/12/02 03:46:27;;;;;;;65.28;9.40;;;18.40;97.10;;;;;;5081130;28;20047;-74
2023/12/02 03:49:31;;;;;;;70.63;8.25;;;;;;;;;;5093086;28;20055;-73
2023/12/02 03:52:35;;;;;;;57.28;7.05;;;;;;;;;;5093782;28;20599;-74
2023/12/02 03:55:40;;;;;;;54.10;7.20;;;;;;;;;;5094280;28;20246;-74
2023/12/02 03:58:45;;;;;;;68.38;7.47;;;;;;;;;;5093420;28;20518;-73
2023/12/02 04:01:49;;;;;;;56.90;8.18;;;;;;;;;;5093688;28;20051;-74
2023/12/02 04:04:53;;;;;;;69.95;7.90;;;;;;;;;;5093203;28;20043;-75
2023/12/02 04:07:57;;;;;;;68.88;7.88;;;;;;;;;;5080742;28;20059;-74
2023/12/02 04:11:03;;;;;;;66.18;7.75;;;;;;;;;;5093223;28;20063;-72
2023/12/02 04:14:06;;;;;;;69.50;8.55;;;;;;;;;;5093364;28;20047;-72
2023/12/02 04:17:11;;;;;;;71.28;9.32;;;;;;;;;;5092891;28;20039;-72
2023/12/02 04:20:15;;;;;;;58.15;8.20;;;;;;;;;;5093296;28;20384;-72
2023/12/02 04:23:20;;;;;;;63.97;6.55;;;;;;;;;;5092950;28;20039;-72
2023/12/02 04:26:24;;;;;;;61.72;7.85;;;;;;;;;;5092810;28;20118;-72
2023/12/02 04:29:28;;;;;;;63.40;7.80;;;;;;;;;;5093106;28;20047;-72
2023/12/02 04:32:35;;;;;;;57.72;7.40;;;;;;;;;;5092948;28;20506;-73
2023/12/02 04:35:39;;;;;;;54.40;6.68;;;;;;;;;;5092520;28;20043;-73
2023/12/02 04:38:44;;;;;;;65.00;8.80;;;;;;;;;;5092830;28;20039;-73
2023/12/02 04:41:48;;;;;;;55.85;7.03;;;;;;;;;;5092919;28;20051;-73
2023/12/02 04:44:52;;;;;;;47.83;7.45;;;;;;;;;;5092386;28;20051;-72
2023/12/02 04:47:57;;;;;;;48.63;7.53;;;;;;;;;;5092503;28;20522;-73
2023/12/02 04:51:01;;;;;;;64.45;7.10;;;;;;;;;;5092732;28;20047;-73
2023/12/02 04:54:05;;;;;;;54.58;6.78;;;;;;;;;;5092691;28;20039;-74
2023/12/02 04:57:10;;;;;;;57.40;6.55;;;;;;;;;;5092650;28;20039;-73
2023/12/02 05:00:14;;;;;;;27.33;4.43;;;;;;;;;;5091898;28;20042;-73
2023/12/02 05:03:18;;;;;;;61.30;6.70;;;;;;;;;;5092309;28;20375;-72
2023/12/02 05:06:22;;;;;;;56.60;7.47;;;;;;;;;;5079954;28;20506;-73
2023/12/02 05:09:29;;;;;;;61.17;8.75;;;;;;;;;;5079902;28;20431;-73
2023/12/02 05:12:33;;;;;;;43.78;6.57;;;;;;;;;;5092112;28;20043;-74
2023/12/02 05:15:39;;;;;;;40.78;7.90;;;;;;;;;;5092102;28;20056;-74
2023/12/02 05:18:43;;;;;;;44.67;6.00;;;;;;;;;;5091655;28;20059;-74
2023/12/02 05:21:47;;;;;;;54.72;6.63;;;;;;;;;;5091901;28;20043;-74
2023/12/02 05:24:51;;;;;;;46.33;7.63;;;;;;;;;;5091897;28;20039;-74
2023/12/02 05:27:56;;;;;;;60.30;7.05;;;;;;;;;;5091529;28;20406;-73
2023/12/02 05:31:00;;;;;;;68.65;9.77;;;;;;;;;;5091779;28;20039;-72
2023/12/02 05:34:05;;;;;;;51.28;7.35;;;;;;;;;;5091654;28;20051;-72
2023/12/02 05:37:09;;;;;;;62.40;9.95;;;;;;;;;;5091739;28;20047;-73
2023/12/02 05:40:14;;;;;;;43.67;6.75;;;;;;;;;;5091763;28;20602;-73
2023/12/02 05:43:18;;;;;;;45.92;6.70;;;;;;;;;;5091662;28;20043;-73
2023/12/02 05:46:22;;;;;;;54.83;7.80;;;;;;;;;;5091635;28;20490;-74
2023/12/02 05:49:26;;;;;;;45.13;7.03;;;;;;;;;;5091468;28;20047;-73
2023/12/02 05:52:30;;;;;;;56.92;7.78;;;;;;;;;;5091299;28;20043;-73
2023/12/02 05:56:00;;;;;;;56.35;7.05;;;18.70;98.00;;;;;;5078924;28;20051;-71
2023/12/02 05:59:04;;;;;;;53.92;8.18;;;;;;;;;;5091491;28;20043;-72
2023/12/02 06:02:08;;;;;;;50.03;7.18;;;;;;;;;;5091439;28;20035;-73
2023/12/02 06:05:13;;;;;;;53.85;7.38;;;;;;;;;;5091046;28;20043;-73
2023/12/02 06:08:17;;;;;;;57.92;6.70;;;;;;;;;;5090991;28;20412;-74
2023/12/02 06:11:22;;;;;;;53.97;8.00;;;;;;;;;;5091160;28;20047;-74
2023/12/02 06:14:26;;;;;;;56.10;7.38;;;;;;;;;;5091191;28;20396;-74
2023/12/02 06:17:31;;;;;;;40.92;6.25;;;;;;;;;;5090980;28;20067;-74
2023/12/02 06:20:36;;;;;;;58.13;7.63;;;;;;;;;;5090968;28;20499;-74
2023/12/02 06:23:40;;;;;;;51.88;7.43;;;;;;;;;;5091135;28;20388;-74
2023/12/02 06:26:44;;;;;;;55.85;7.68;;;;;;;;;;5090982;28;20051;-73
2023/12/02 06:29:49;;;;;;;50.25;7.25;;;;;;;;;;5091073;28;20411;-70
2023/12/02 06:32:53;;;;;;;64.93;8.95;;;;;;;;;;5090603;28;20047;-70
2023/12/02 06:35:57;;;;;;;47.95;7.70;;;;;;;;;;5090506;28;20415;-71
2023/12/02 06:39:02;;;;;;;59.08;7.85;;;;;;;;;;5090994;28;20051;-71
2023/12/02 06:42:06;;;;;;;46.25;7.03;;;;;;;;;;5090604;28;20405;-71
2023/12/02 06:45:11;;;;;;;46.10;7.95;;;;;;;;;;5090483;28;20051;-71
2023/12/02 06:48:15;;;;;;;55.45;6.97;;;;;;;;;;5090608;28;20517;-71
2023/12/02 06:51:21;;;;;;;38.22;6.28;;;;;;;;;;5090882;28;20071;-70
2023/12/02 06:54:25;;;;;;;57.10;7.95;;;;;;;;;;5090298;28;20043;-70
2023/12/02 06:57:31;;;;;;;57.83;11.18;;;;;;;;;;5090800;28;20047;-69
2023/12/02 07:00:35;;;;;;;60.83;10.90;;;;;;;;;;5090786;28;20051;-70
2023/12/02 07:03:39;;;;;;;50.47;8.65;;;;;;;;;;5090561;28;20055;-71
2023/12/02 07:06:43;;;;;;;50.67;8.85;;;;;;;;;;5090531;28;20066;-69
2023/12/02 07:09:48;;;;;;;40.72;7.28;;;;;;;;;;5090467;28;20059;-69
2023/12/02 07:12:52;;;;;;;51.50;8.50;;;;;;;;;;5090367;28;20040;-69
2023/12/02 07:15:57;;;;;;;60.60;9.40;;;;;;;;;;5090140;28;20043;-69
2023/12/02 07:19:01;;;;;;;59.33;8.27;;;;;;;;;;5089988;28;20047;-69
2023/12/02 07:22:07;;;;;;;58.05;7.97;;;;;;;;;;5090486;28;20051;-68
2023/12/02 07:25:11;;;;;;;62.60;8.55;;;;;;;;;;5092754;28;20031;-68
2023/12/02 07:28:16;;;;;;;46.33;9.00;;;;;;;;;;5093638;28;20058;-70
2023/12/02 07:31:20;;;;;;;53.45;7.85;;;;;;;;;;5093681;28;20051;-69
2023/12/02 07:34:25;;;;;;;54.72;7.75;;;;;;;;;;5093350;28;20086;-70
2023/12/02 07:37:29;;;;;;;52.47;8.15;;;;;;;;;;5094023;28;20388;-71
2023/12/02 07:40:34;;;;;;;52.90;8.05;;;;;;;;;;5093328;28;20067;-68
2023/12/02 07:43:38;;;;;;;70.38;11.55;;;;;;;;;;5093779;28;20519;-70
2023/12/02 07:46:42;;;;;;;60.78;7.90;;;;;;;;;;5093314;28;20043;-72
2023/12/02 07:49:47;;;;;;;51.10;8.20;;;;;;;;;;5093663;28;20352;-73
2023/12/02 07:52:51;;;;;;;59.25;9.07;;;;;;;;;;5093564;28;20043;-73
2023/12/02 07:55:55;;;;;;;58.50;8.50;;;;;;;;;;5093243;28;20047;-67
2023/12/02 07:58:59;;;;;;;51.85;7.32;;;;;;;;;;5080833;28;20067;-70
2023/12/02 08:02:04;;;;;;;74.45;9.60;;;;;;;;;;5093404;28;20407;-71
2023/12/02 08:05:09;;;;;;;51.42;7.38;;;;;;;;;;5093245;28;20055;-71
2023/12/02 08:08:13;;;;;;;64.13;8.75;;;;;;;;;;5093082;28;20054;-69
2023/12/02 08:11:18;;;;;;;46.83;7.20;;;;;;;;;;5093010;28;20043;-71
2023/12/02 08:14:22;;;;;;;56.47;8.70;;;;;;;;;;5092757;28;20051;-67
2023/12/02 08:17:26;;;;;;;54.58;9.20;;;;;;;;;;5092526;28;20051;-71
2023/12/02 08:20:31;;;;;;;48.55;8.27;;;;;;;;;;5093293;28;20051;-71
2023/12/02 08:23:35;;;;;;;56.25;7.65;;;;;;;;;;5093386;28;20059;-70
2023/12/02 08:26:39;;;;;;;53.60;6.93;;;;;;;;;;5092850;28;20047;-70
2023/12/02 08:29:44;;;;;;;47.58;7.30;;;;;;;;;;5092837;28;20503;-70
2023/12/02 08:32:48;;;;;;;45.50;7.38;;;;;;;;;;5092923;28;20084;-69
2023/12/02 08:35:53;;;;;;;49.72;6.90;;;;;;;;;;5092573;28;20042;-71
2023/12/02 08:38:57;;;;;;;44.45;6.47;;;;;;;;;;5092466;28;20046;-68
2023/12/02 08:42:01;;;;;;;58.33;8.65;;;;;;;;;;5080177;28;20043;-68
2023/12/02 08:45:06;;;;;;;47.15;6.82;;;;;;;;;;5092549;28;20062;-70
2023/12/02 08:48:10;;;;;;;42.75;5.45;;;;;;;;;;5092408;28;20051;-73
2023/12/02 08:51:14;;;;;;;45.00;6.70;;;;;;;;;;5092048;28;20502;-69
2023/12/02 08:54:19;;;;;;;38.65;6.88;;;;;;;;;;5092302;28;20051;-71
2023/12/02 08:57:26;;;;;;;38.13;6.30;;;19.20;95.60;;;;;;5092357;28;20043;-71
2023/12/02 09:00:31;;;;;;;53.90;8.50;;;21.70;96.10;;;;;;5092382;28;20106;-70
2023/12/02 09:03:36;;;;;;;47.55;7.65;;;;;;;;;;5092049;28;20507;-70
2023/12/02 09:06:40;;;;;;;51.92;6.45;;;;;;;;;;5092206;28;20047;-70
2023/12/02 09:09:44;;;;;;;45.17;6.90;;;;;;;;;;5092009;28;20040;-69
2023/12/02 09:12:49;;;;;;;53.58;6.85;;;;;;;;;;5091839;28;20507;-70
2023/12/02 09:15:53;;;;;;;39.88;7.20;;;;;;;;;;5091759;28;20106;-70
2023/12/02 09:18:58;;;;;;;41.45;6.72;;;;;;;;;;5091698;28;20047;-69
2023/12/02 09:22:03;;;;;;;45.42;7.32;;;;;;;;;;5091906;28;20043;-70
2023/12/02 09:25:07;;;;;;;44.05;6.32;;;;;;;;;;5091501;28;20102;-69
2023/12/02 09:28:15;;;;;;;52.83;9.38;;;20.60;97.40;;;;;;5091301;28;20059;-69
2023/12/02 09:31:19;;;;;;;62.13;11.05;;;;;;;;;;5091745;28;20384;-69
2023/12/02 09:34:43;;;;;;;54.45;7.05;;;18.10;97.80;;;;;;5091519;28;20042;-69
2023/12/02 09:37:55;;;;;;;61.08;8.38;;;19.10;98.90;;;;;;5094260;28;20094;-69
2023/12/02 09:41:00;;;;;;;69.53;9.70;;;;;;;;;;5091449;28;20498;-70
2023/12/02 09:44:15;;;;;;;61.83;8.40;;;19.10;99.10;;;;;;5091219;28;20050;-70
2023/12/02 09:47:23;;;;;;;59.60;8.55;;;;;;;;;;5090816;28;20047;-71
2023/12/02 09:50:32;;;;;;;66.72;9.50;;;19.20;99.00;;;;;;5091423;28;20051;-70
2023/12/02 09:53:37;;;;;;;56.22;8.30;;;;;;;;;;5090778;28;20055;-71
2023/12/02 09:56:49;;;;;;;39.88;6.03;;;19.20;99.10;;;;;;5090869;28;20046;-70
2023/12/02 10:00:09;;;;;;;54.20;8.65;;;19.20;99.10;;;;;;5091314;28;20384;-72
2023/12/02 10:03:54;;;;;;;50.08;6.97;;;19.20;99.50;;;;;;5090687;28;20520;-70
2023/12/02 10:07:20;;;;;;;51.78;9.05;;;19.60;99.90;;;;;;5090865;28;20047;-73
2023/12/02 10:10:29;;;;;;;46.35;8.15;;;18.80;99.90;;;;;;5090814;28;20047;-68
2023/12/02 10:14:03;;;;;;;64.30;8.68;;;19.60;99.90;;;;;;5091041;28;20388;-70
2023/12/02 10:17:10;;;;;;;59.13;7.57;;;19.60;99.90;;;;;;5090882;28;20059;-69
2023/12/02 10:20:16;;;;;;;64.90;9.35;;;19.30;99.90;;;;;;5090405;28;20039;-69
2023/12/02 10:23:20;;;;;;;62.15;9.43;;;;;;;;;;5090858;28;20039;-68
2023/12/02 10:26:32;;;;;;;64.90;10.25;;;19.20;99.90;;;;;;5089010;28;20063;-68
2023/12/02 10:29:40;;;;;;;;;;;19.20;99.90;;;;;;5090735;28;20055;-69
2023/12/02 10:32:47;;;;;;;64.65;9.88;;;19.20;99.90;;;;;;5090111;28;19908;-69
2023/12/02 10:36:02;;;;;;;51.83;8.30;;;19.20;99.90;;;;;;5090169;28;20039;-69
2023/12/02 10:39:20;;;;;;;59.10;9.05;;;19.10;99.90;;;;;;5090535;28;20047;-70
2023/12/02 10:42:34;;;;;;;57.22;9.52;;;18.40;99.90;;;;;;5090640;28;20067;-69
2023/12/02 10:45:41;;;;;;;63.15;9.88;;;19.00;99.90;;;;;;5077038;28;20055;-70
2023/12/02 10:48:45;;;;;;;50.90;8.27;;;;;;;;;;5089207;28;20055;-70
2023/12/02 10:51:50;;;;;;;51.72;8.55;;;;;;;;;;5077484;28;20047;-68
2023/12/02 10:54:58;;;;;;;73.05;8.63;;;19.00;99.90;;;;;;5089608;28;20043;-70
2023/12/02 10:58:05;;;;;;;65.18;7.70;;;19.80;99.90;;;;;;5091312;28;20051;-70
2023/12/02 11:01:10;;;;;;;63.22;11.35;;;18.90;99.90;;;;;;5092529;28;20098;-69
2023/12/02 11:04:28;;;;;;;45.67;7.20;;;17.30;99.90;;;;;;5092774;28;20046;-69
2023/12/02 11:07:34;;;;;;;65.78;9.23;;;;;;;;;;5093665;28;20165;-69
2023/12/02 11:10:48;;;;;;;55.33;8.13;;;17.90;99.90;;;;;;5093734;28;20701;-70
2023/12/02 11:13:57;;;;;;;50.13;8.23;;;19.00;99.90;;;;;;5093819;28;20051;-70
2023/12/02 11:17:30;;;;;;;43.72;6.80;;;19.10;99.90;;;;;;5093842;28;20055;-71
2023/12/02 11:20:49;;;;;;;59.00;8.75;;;19.10;99.90;;;;;;5081676;28;20110;-68
2023/12/02 11:24:07;;;;;;;61.25;6.90;;;19.00;99.90;;;;;;5094318;28;20039;-72
2023/12/02 11:27:40;;;;;;;55.45;7.50;;;20.40;99.90;;;;;;5093506;28;20043;-69
2023/12/02 11:31:22;;;;;;;33.40;5.22;;;19.10;99.90;;;;;;5093637;28;20522;-69
2023/12/02 11:34:50;;;;;;;28.17;4.55;;;18.90;99.90;;;;;;5093640;28;20403;-67
2023/12/02 11:38:15;;;;;;;34.00;7.03;;;18.80;99.90;;;;;;5080827;28;20047;-67
2023/12/02 11:41:20;;;;;;;33.85;6.22;;;;;;;;;;5093587;28;20055;-72
2023/12/02 11:44:35;;;;;;;25.83;5.15;;;18.70;99.90;;;;;;5093568;28;20047;-72
2023/12/02 11:48:07;;;;;;;28.30;4.78;;;18.30;99.90;;;;;;5093530;28;20047;-72
2023/12/02 11:51:20;;;;;;;33.97;6.10;;;;;;;;;;5093876;28;20051;-72
2023/12/02 11:54:51;;;;;;;29.75;5.07;;;18.10;99.90;;;;;;5092869;28;20042;-73
2023/12/02 11:58:06;;;;;;;24.25;3.88;;;18.20;99.90;;;;;;5093456;28;20400;-73
2023/12/02 12:01:35;;;;;;;20.33;4.68;;;18.20;99.90;;;;;;5093250;28;20042;-72
2023/12/02 12:04:48;;;;;;;30.38;4.40;;;19.90;99.90;;;;;;5092737;28;20495;-71
2023/12/02 12:07:54;;;;;;;23.55;3.88;;;;;;;;;;5093341;28;20087;-72
2023/12/02 12:10:58;;;;;;;31.52;5.30;;;;;;;;;;5092641;28;20050;-72
2023/12/02 12:14:04;;;;;;;24.17;4.80;;;;;;;;;;5093248;28;20051;-71
2023/12/02 12:17:08;;;;;;;24.60;4.47;;;;;;;;;;5092814;28;20483;-72
2023/12/02 12:20:25;;;;;;;25.88;4.90;;;17.90;99.90;;;;;;5093173;28;20094;-72
2023/12/02 12:23:31;;;;;;;27.48;4.53;;;;;;;;;;5092577;28;20047;-72
2023/12/02 12:26:35;;;;;;;25.13;4.53;;;;;;;;;;5092654;28;20039;-72
2023/12/02 12:29:53;;;;;;;24.92;4.80;;;17.90;99.90;;;;;;5092654;28;20043;-72
2023/12/02 12:32:57;;;;;;;24.83;4.05;;;;;;;;;;5092895;28;20647;-71
2023/12/02 12:36:01;;;;;;;28.40;5.38;;;18.00;99.90;;;;;;5092943;28;20043;-72
2023/12/02 12:39:07;;;;;;;21.27;3.53;;;;;;;;;;5092565;28;20047;-72
2023/12/02 12:42:12;;;;;;;20.00;3.40;;;18.00;99.90;;;;;;5092438;28;20043;-72
2023/12/02 12:45:16;;;;;;;26.60;4.43;;;;;;;;;;5092576;28;20051;-71
2023/12/02 12:48:26;;;;;;;23.83;3.45;;;17.80;99.90;;;;;;5092319;28;20058;-72
2023/12/02 12:51:31;;;;;;;20.52;3.58;;;;;;;;;;5092499;28;20051;-71
2023/12/02 12:54:58;;;;;;;22.95;3.95;;;18.00;99.90;;;;;;5092394;28;20047;-70
2023/12/02 12:58:08;;;;;;;20.30;4.30;;;19.70;99.90;;;;;;5092402;28;20043;-71
2023/12/02 13:01:13;;;;;;;23.50;3.85;;;18.10;99.80;;;;;;5092250;28;20055;-72
2023/12/02 13:04:30;;;;;;;26.00;4.03;;;18.10;99.40;;;;;;5092033;28;20399;-70
2023/12/02 13:07:48;;;;;;;22.90;4.35;;;17.90;99.00;;;;;;5079373;28;20094;-72
2023/12/02 13:10:54;;;;;;;18.20;3.63;;;18.10;98.40;;;;;;5092135;28;20047;-72
2023/12/02 13:14:10;;;;;;;21.27;3.40;;;18.40;98.30;;;;;;5091973;28;20388;-72
2023/12/02 13:17:15;;;;;;;16.48;3.78;;;;;;;;;;5091833;28;20047;-72
2023/12/02 13:20:22;;;;;;;26.45;4.40;;;18.50;98.00;;;;;;5091908;28;20062;-72
2023/12/02 13:23:27;;;;;;;21.13;4.75;;;;;;;;;;5090932;28;20039;-73
2023/12/02 13:26:33;;;;;;;18.38;3.50;;;;;;;;;;5091557;28;20097;-73
2023/12/02 13:29:37;;;;;;;15.68;3.13;;;;;;;;;;5091455;28;20407;-73
2023/12/02 13:32:46;;;;;;;21.23;3.53;;;19.20;98.10;;;;;;5091766;28;20511;-73
2023/12/02 13:36:05;;;;;;;13.55;3.67;;;16.10;97.50;;;;;;5091725;28;20046;-71
2023/12/02 13:39:34;;;;;;;16.90;3.00;;;20.20;98.20;;;;;;5091578;28;20039;-71
2023/12/02 13:42:38;;;;;;;12.93;2.65;;;;;;;;;;5091769;28;20051;-72
2023/12/02 13:45:52;;;;;;;13.15;2.55;;;18.00;96.60;;;;;;5092218;28;20043;-71
2023/12/02 13:49:11;;;;;;;24.02;3.15;;;17.30;96.30;;;;;;5091263;28;20047;-71
2023/12/02 13:52:49;;;;;;;13.93;2.97;;;19.30;96.80;;;;;;5091202;28;20054;-69
2023/12/02 13:56:11;;;;;;;13.70;3.33;;;18.30;96.20;;;;;;5091528;28;20047;-72
2023/12/02 13:59:15;;;;;;;17.70;2.67;;;;;;;;;;5091442;28;20050;-72
2023/12/02 14:02:41;;;;;;;13.48;2.65;;;18.20;95.90;;;;;;5091601;28;20043;-72
2023/12/02 14:05:48;;;;;;;25.65;3.67;;;18.00;95.90;;;;;;5078932;28;20384;-72
2023/12/02 14:08:57;;;;;;;15.40;2.92;;;18.00;96.00;;;;;;5090965;28;20043;-71
2023/12/02 14:12:18;;;;;;;15.23;3.20;;;18.20;95.40;;;;;;5091114;28;20039;-70
2023/12/02 14:15:38;;;;;;;16.80;2.47;;;17.80;95.20;;;;;;5091090;28;20042;-71
2023/12/02 14:19:13;;;;;;;18.02;3.25;;;18.00;94.70;;;;;;5090611;28;20059;-70
2023/12/02 14:22:39;;;;;;;16.42;2.90;;;17.20;94.90;;;;;;5091178;28;20039;-72
2023/12/02 14:25:43;;;;;;;15.77;2.90;;;;;;;;;;5078512;28;20039;-71
2023/12/02 14:29:28;;;;;;;13.52;3.95;;;18.20;94.90;;;;;;5090563;28;20051;-71
2023/12/02 14:32:47;;;;;;;22.10;3.78;;;16.60;94.40;;;;;;5090532;28;20114;-72
2023/12/02 14:36:12;;;;;;;18.10;3.05;;;16.80;94.20;;;;;;5095031;28;20071;-71
2023/12/02 14:40:04;;;;;;;16.30;3.15;;;18.10;94.40;;;;;;5094987;28;20392;-72
2023/12/02 14:43:09;;;;;;;16.77;2.80;;;;;;;;;;5080598;28;20047;-72
2023/12/02 14:46:17;;;;;;;10.40;2.17;;;;;;;;;;5094695;28;20047;-68
2023/12/02 14:49:28;;;;;;;22.48;3.20;;;15.50;93.70;;;;;;5079875;28;20051;-68
2023/12/02 14:52:33;;;;;;;20.88;3.00;;;;;;;;;;5092812;28;20106;-69
2023/12/02 14:55:38;;;;;;;16.30;2.40;;;;;;;;;;5092392;28;20047;-69
2023/12/02 14:58:43;;;;;;;14.45;3.30;;;;;;;;;;5079874;28;20043;-68
2023/12/02 15:01:55;;;;;;;13.02;3.35;;;16.20;93.00;;;;;;5092411;28;20039;-72
2023/12/02 15:05:01;;;;;;;23.10;4.38;;;;;;;;;;5093809;28;20039;-71
2023/12/02 15:08:09;;;;;;;13.95;3.03;;;;;;;;;;5094560;28;20502;-71
2023/12/02 15:11:14;;;;;;;31.75;4.40;;;17.80;93.70;;;;;;5092919;28;20055;-71
2023/12/02 15:14:20;;;;;;;18.42;2.92;;;;;;;;;;5093446;28;20047;-71
2023/12/02 15:17:24;;;;;;;19.73;3.00;;;;;;;;;;5094208;28;20048;-71
2023/12/02 15:20:34;;;;;;;18.80;3.05;;;17.50;92.40;;;;;;5094290;28;20031;-71
2023/12/02 15:23:39;;;;;;;15.18;2.95;;;;;;;;;;5094086;28;20046;-70
2023/12/02 15:26:43;;;;;;;26.70;3.67;;;;;;;;;;5094214;28;20047;-70
2023/12/02 15:29:48;;;;;;;27.48;4.32;;;;;;;;;;5093864;28;20059;-70
2023/12/02 15:32:53;;;;;;;19.77;3.47;;;;;;;;;;5093899;28;20098;-70
2023/12/02 15:35:57;;;;;;;18.15;4.43;;;;;;;;;;5093708;28;20471;-70
2023/12/02 15:39:04;;;;;;;21.08;5.13;;;;;;;;;;5093866;28;20039;-70
2023/12/02 15:42:08;;;;;;;20.95;4.13;;;;;;;;;;5093648;28;20051;-70
2023/12/02 15:45:12;;;;;;;20.77;3.63;;;;;;;;;;5092388;28;20035;-71
2023/12/02 15:48:17;;;;;;;17.73;4.20;;;;;;;;;;5093403;28;20051;-72
2023/12/02 15:51:21;;;;;;;19.85;6.03;;;;;;;;;;5093635;28;20142;-70
2023/12/02 15:54:28;;;;;;;23.17;7.50;;;;;;;;;;5093701;28;20047;-71
2023/12/02 15:57:33;;;;;;;29.10;8.48;;;;;;;;;;5093455;28;20043;-70
2023/12/02 16:00:38;;;;;;;30.42;7.55;;;;;;;;;;5093294;28;20042;-70
2023/12/02 16:03:46;;;;;;;26.50;5.75;;;17.10;93.30;;;;;;5093416;28;20043;-71
2023/12/02 16:06:52;;;;;;;26.35;4.93;;;;;;;;;;5093223;28;20043;-71
2023/12/02 16:09:56;;;;;;;28.48;6.30;;;;;;;;;;5092932;28;20051;-71
2023/12/02 16:13:01;;;;;;;28.58;5.40;;;;;;;;;;5092945;28;20043;-71
2023/12/02 16:16:07;;;;;;;27.27;5.72;;;;;;;;;;5093284;28;20066;-71
2023/12/02 16:19:11;;;;;;;25.15;5.40;;;;;;;;;;5093140;28;20055;-71
2023/12/02 16:22:17;;;;;;;22.15;5.93;;;;;;;;;;5093338;28;20596;-71
2023/12/02 16:25:23;;;;;;;28.52;5.60;;;;;;;;;;5092961;28;20059;-71
2023/12/02 16:28:31;;;;;;;17.90;5.35;;;14.70;93.40;;;;;;5092697;28;20051;-71
2023/12/02 16:31:35;;;;;;;25.75;5.28;;;;;;;;;;5092811;28;20055;-71
2023/12/02 16:34:42;;;;;;;24.65;6.30;;;17.50;94.20;;;;;;5092707;28;20039;-71
2023/12/02 16:37:47;;;;;;;23.30;5.35;;;;;;;;;;5092400;28;20525;-71
2023/12/02 16:40:52;;;;;;;28.90;5.90;;;;;;;;;;5092678;28;20039;-71
2023/12/02 16:43:56;;;;;;;26.55;5.75;;;;;;;;;;5092493;28;20507;-71
2023/12/02 16:47:01;;;;;;;37.08;7.40;;;;;;;;;;5092411;28;20534;-71
2023/12/02 16:50:32;;;;;;;38.45;7.35;;;;;;;;;;5092416;28;20054;-71
2023/12/02 16:53:37;;;;;;;19.85;6.47;;;;;;;;;;5092396;28;20039;-71
2023/12/02 16:56:42;;;;;;;44.95;11.50;;;;;;;;;;5092294;28;20051;-71
2023/12/02 16:59:47;;;;;;;52.50;19.38;;;;;;;;;;5092011;28;20372;-70
2023/12/02 17:02:53;;;;;;;45.17;13.13;;;;;;;;;;5092115;28;20047;-70
2023/12/02 17:05:57;;;;;;;49.63;16.30;;;;;;;;;;5092195;28;20046;-70
2023/12/02 17:09:02;;;;;;;55.28;16.63;;;;;;;;;;5091948;28;20051;-70
2023/12/02 17:12:09;;;;;;;41.22;10.70;;;;;;;;;;5091899;28;20039;-71
2023/12/02 17:15:26;;;;;;;43.67;10.00;;;;;;;;;;5091765;28;20043;-71
2023/12/02 17:18:30;;;;;;;37.65;9.20;;;;;;;;;;5091966;28;20071;-71
2023/12/02 17:21:50;;;;;;;38.00;8.57;;;17.70;95.80;;;;;;5091542;28;20043;-71
2023/12/02 17:24:55;;;;;;;30.45;8.10;;;;;;;;;;5091658;28;20491;-70
2023/12/02 17:27:59;;;;;;;32.17;8.82;;;;;;;;;;5091937;28;20048;-70
2023/12/02 17:31:03;;;;;;;42.83;11.68;;;;;;;;;;5091897;28;20054;-71
2023/12/02 17:34:08;;;;;;;41.83;10.93;;;;;;;;;;5091498;28;20035;-71
2023/12/02 17:37:12;;;;;;;41.28;9.45;;;;;;;;;;5091855;28;20183;-70
2023/12/02 17:40:18;;;;;;;38.40;9.98;;;;;;;;;;5091825;28;20043;-71
2023/12/02 17:43:23;;;;;;;40.72;11.18;;;;;;;;;;5091326;28;20415;-71
2023/12/02 17:46:27;;;;;;;38.50;9.43;;;;;;;;;;5091382;28;20043;-71
2023/12/02 17:49:31;;;;;;;40.00;9.45;;;;;;;;;;5091349;28;20506;-71